sensor_id;sensor_type;location;lat;lon;timestamp;pressure;altitude;pressure_sealevel;temperature
24714;BMP280;12820;51.580;5.010;2023-12-20T00:03:32;101722.94;;;8.69
24714;BMP280;12820;51.580;5.010;2023-12-20T00:08:43;101732.13;;;8.67
24714;BMP280;12820;51.580;5.010;2023-12-20T00:13:46;101726.25;;;8.65
24714;BMP280;12820;51.580;5.010;2023-12-20T00:18:53;101716.22;;;8.65
24714;BMP280;12820;51.580;5.010;2023-12-20T00:23:55;101715.38;;;8.63
24714;BMP280;12820;51.580;5.010;2023-12-20T00:28:57;101722.91;;;8.62
24714;BMP280;12820;51.580;5.010;2023-12-20T00:33:59;101722.06;;;8.61
24714;BMP280;12820;51.580;5.010;2023-12-20T00:39:01;101718.69;;;8.59
24714;BMP280;12820;51.580;5.010;2023-12-20T00:44:04;101721.19;;;8.59
24714;BMP280;12820;51.580;5.010;2023-12-20T00:49:06;101706.16;;;8.58
24714;BMP280;12820;51.580;5.010;2023-12-20T00:54:09;101698.63;;;8.59
24714;BMP280;12820;51.580;5.010;2023-12-20T00:59:11;101705.34;;;8.60
24714;BMP280;12820;51.580;5.010;2023-12-20T01:04:13;101695.31;;;8.60
24714;BMP280;12820;51.580;5.010;2023-12-20T01:09:15;101698.63;;;8.59
24714;BMP280;12820;51.580;5.010;2023-12-20T01:14:17;101706.16;;;8.56
24714;BMP280;12820;51.580;5.010;2023-12-20T01:19:19;101713.66;;;8.55
24714;BMP280;12820;51.580;5.010;2023-12-20T01:24:22;101714.47;;;8.54
24714;BMP280;12820;51.580;5.010;2023-12-20T01:29:24;101715.28;;;8.52
24714;BMP280;12820;51.580;5.010;2023-12-20T01:34:26;101718.63;;;8.51
24714;BMP280;12820;51.580;5.010;2023-12-20T01:39:28;101706.91;;;8.50
24714;BMP280;12820;51.580;5.010;2023-12-20T01:44:31;101705.25;;;8.47
24714;BMP280;12820;51.580;5.010;2023-12-20T01:49:33;101710.22;;;8.43
24714;BMP280;12820;51.580;5.010;2023-12-20T01:54:35;101707.66;;;8.40
24714;BMP280;12820;51.580;5.010;2023-12-20T01:59:39;101712.69;;;8.40
24714;BMP280;12820;51.580;5.010;2023-12-20T02:04:42;101713.53;;;8.40
24714;BMP280;12820;51.580;5.010;2023-12-20T02:09:45;101711.03;;;8.42
24714;BMP280;12820;51.580;5.010;2023-12-20T02:14:48;101711.00;;;8.40
24714;BMP280;12820;51.580;5.010;2023-12-20T02:19:50;101705.19;;;8.38
24714;BMP280;12820;51.580;5.010;2023-12-20T02:24:52;101698.47;;;8.37
24714;BMP280;12820;51.580;5.010;2023-12-20T02:29:54;101712.69;;;8.40
24714;BMP280;12820;51.580;5.010;2023-12-20T02:34:57;101713.53;;;8.39
24714;BMP280;12820;51.580;5.010;2023-12-20T02:40:00;101710.19;;;8.40
24714;BMP280;12820;51.580;5.010;2023-12-20T02:45:02;101711.03;;;8.39
24714;BMP280;12820;51.580;5.010;2023-12-20T02:50:04;101699.31;;;8.38
24714;BMP280;12820;51.580;5.010;2023-12-20T02:55:07;101706.84;;;8.38
24714;BMP280;12820;51.580;5.010;2023-12-20T03:00:10;101702.66;;;8.38
24714;BMP280;12820;51.580;5.010;2023-12-20T03:05:12;101694.34;;;8.39
24714;BMP280;12820;51.580;5.010;2023-12-20T03:10:15;101700.19;;;8.43
24714;BMP280;12820;51.580;5.010;2023-12-20T03:15:27;101692.69;;;8.46
24714;BMP280;12820;51.580;5.010;2023-12-20T03:20:29;101684.38;;;8.50
24714;BMP280;12820;51.580;5.010;2023-12-20T03:25:35;101680.22;;;8.54
24714;BMP280;12820;51.580;5.010;2023-12-20T03:30:37;101682.75;;;8.59
24714;BMP280;12820;51.580;5.010;2023-12-20T03:35:39;101676.13;;;8.62
24714;BMP280;12820;51.580;5.010;2023-12-20T03:40:41;101675.31;;;8.66
24714;BMP280;12820;51.580;5.010;2023-12-20T03:45:43;101668.63;;;8.68
24714;BMP280;12820;51.580;5.010;2023-12-20T03:50:46;101672.00;;;8.70
24714;BMP280;12820;51.580;5.010;2023-12-20T03:55:48;101669.53;;;8.76
24714;BMP280;12820;51.580;5.010;2023-12-20T04:00:50;101674.56;;;8.80
24714;BMP280;12820;51.580;5.010;2023-12-20T04:05:52;101675.41;;;8.84
24714;BMP280;12820;51.580;5.010;2023-12-20T04:10:54;101681.31;;;8.88
24714;BMP280;12820;51.580;5.010;2023-12-20T04:15:56;101675.47;;;8.92
24714;BMP280;12820;51.580;5.010;2023-12-20T04:20:58;101689.72;;;8.96
24714;BMP280;12820;51.580;5.010;2023-12-20T04:26:01;101691.41;;;9.00
24714;BMP280;12820;51.580;5.010;2023-12-20T04:31:03;101692.25;;;9.02
24714;BMP280;12820;51.580;5.010;2023-12-20T04:36:05;101682.25;;;9.05
24714;BMP280;12820;51.580;5.010;2023-12-20T04:41:07;101683.06;;;9.04
24714;BMP280;12820;51.580;5.010;2023-12-20T04:46:10;101686.41;;;9.03
24714;BMP280;12820;51.580;5.010;2023-12-20T04:51:12;101687.22;;;9.02
24714;BMP280;12820;51.580;5.010;2023-12-20T04:56:14;101678.88;;;9.00
24714;BMP280;12820;51.580;5.010;2023-12-20T05:01:16;101674.69;;;8.96
24714;BMP280;12820;51.580;5.010;2023-12-20T05:06:19;101662.16;;;8.96
24714;BMP280;12820;51.580;5.010;2023-12-20T05:11:21;101665.44;;;8.92
24714;BMP280;12820;51.580;5.010;2023-12-20T05:16:23;101657.91;;;8.87
24714;BMP280;12820;51.580;5.010;2023-12-20T05:21:25;101652.84;;;8.82
24714;BMP280;12820;51.580;5.010;2023-12-20T05:26:27;101657.00;;;8.76
24714;BMP280;12820;51.580;5.010;2023-12-20T05:31:31;101669.50;;;8.70
24714;BMP280;12820;51.580;5.010;2023-12-20T05:36:33;101669.44;;;8.61
24714;BMP280;12820;51.580;5.010;2023-12-20T05:41:35;101669.38;;;8.55
24714;BMP280;12820;51.580;5.010;2023-12-20T05:46:38;101665.16;;;8.50
24714;BMP280;12820;51.580;5.010;2023-12-20T05:51:41;101670.13;;;8.43
24714;BMP280;12820;51.580;5.010;2023-12-20T05:56:43;101683.44;;;8.36
24714;BMP280;12820;51.580;5.010;2023-12-20T06:01:45;101688.38;;;8.30
24714;BMP280;12820;51.580;5.010;2023-12-20T06:06:48;101682.50;;;8.25
24714;BMP280;12820;51.580;5.010;2023-12-20T06:11:50;101686.63;;;8.19
24714;BMP280;12820;51.580;5.010;2023-12-20T06:16:52;101670.75;;;8.14
24714;BMP280;12820;51.580;5.010;2023-12-20T06:21:55;101685.69;;;8.08
24714;BMP280;12820;51.580;5.010;2023-12-20T06:26:57;101689.84;;;8.05
24714;BMP280;12820;51.580;5.010;2023-12-20T06:31:59;101691.47;;;8.03
24714;BMP280;12820;51.580;5.010;2023-12-20T06:37:01;101690.59;;;7.98
24714;BMP280;12820;51.580;5.010;2023-12-20T06:42:05;101671.38;;;7.96
24714;BMP280;12820;51.580;5.010;2023-12-20T06:47:07;101668.84;;;7.94
24714;BMP280;12820;51.580;5.010;2023-12-20T06:52:10;101667.16;;;7.92
24714;BMP280;12820;51.580;5.010;2023-12-20T06:57:12;101672.97;;;7.89
24714;BMP280;12820;51.580;5.010;2023-12-20T07:02:14;101676.28;;;7.87
24714;BMP280;12820;51.580;5.010;2023-12-20T07:07:16;101675.44;;;7.85
24714;BMP280;12820;51.580;5.010;2023-12-20T07:12:19;101676.25;;;7.85
24714;BMP280;12820;51.580;5.010;2023-12-20T07:17:21;101664.59;;;7.87
24714;BMP280;12820;51.580;5.010;2023-12-20T07:22:26;101666.31;;;7.93
24714;BMP280;12820;51.580;5.010;2023-12-20T07:27:28;101668.06;;;7.98
24714;BMP280;12820;51.580;5.010;2023-12-20T07:32:31;101671.44;;;8.03
24714;BMP280;12820;51.580;5.010;2023-12-20T07:37:34;101673.16;;;8.07
24714;BMP280;12820;51.580;5.010;2023-12-20T07:42:38;101656.50;;;8.12
24714;BMP280;12820;51.580;5.010;2023-12-20T07:47:40;101669.91;;;8.14
24714;BMP280;12820;51.580;5.010;2023-12-20T07:52:46;101657.38;;;8.14
24714;BMP280;12820;51.580;5.010;2023-12-20T07:57:48;101661.56;;;8.15
24714;BMP280;12820;51.580;5.010;2023-12-20T08:02:52;101670.78;;;8.18
24714;BMP280;12820;51.580;5.010;2023-12-20T08:07:54;101674.97;;;8.22
24714;BMP280;12820;51.580;5.010;2023-12-20T08:12:56;101680.88;;;8.30
24714;BMP280;12820;51.580;5.010;2023-12-20T08:17:58;101670.91;;;8.36
24714;BMP280;12820;51.580;5.010;2023-12-20T08:23:00;101665.09;;;8.41
24714;BMP280;12820;51.580;5.010;2023-12-20T08:28:02;101671.00;;;8.49
24714;BMP280;12820;51.580;5.010;2023-12-20T08:33:06;101679.44;;;8.57
24714;BMP280;12820;51.580;5.010;2023-12-20T08:38:13;101677.78;;;8.63
24714;BMP280;12820;51.580;5.010;2023-12-20T08:43:16;101673.66;;;8.68
24714;BMP280;12820;51.580;5.010;2023-12-20T08:48:18;101683.72;;;8.74
24714;BMP280;12820;51.580;5.010;2023-12-20T08:53:20;101671.25;;;8.81
24714;BMP280;12820;51.580;5.010;2023-12-20T08:58:22;101668.78;;;8.88
24714;BMP280;12820;51.580;5.010;2023-12-20T09:03:24;101666.31;;;8.96
24714;BMP280;12820;51.580;5.010;2023-12-20T09:08:27;101659.66;;;9.04
24714;BMP280;12820;51.580;5.010;2023-12-20T09:13:29;101661.38;;;9.12
24714;BMP280;12820;51.580;5.010;2023-12-20T09:18:31;101670.59;;;9.17
24714;BMP280;12820;51.580;5.010;2023-12-20T09:23:33;101672.28;;;9.23
24714;BMP280;12820;51.580;5.010;2023-12-20T09:28:36;101665.63;;;9.27
24714;BMP280;12820;51.580;5.010;2023-12-20T09:33:39;101657.28;;;9.31
24714;BMP280;12820;51.580;5.010;2023-12-20T09:38:41;101662.31;;;9.36
24714;BMP280;12820;51.580;5.010;2023-12-20T09:43:48;101653.13;;;9.42
24714;BMP280;12820;51.580;5.010;2023-12-20T09:48:51;101656.50;;;9.47
24714;BMP280;12820;51.580;5.010;2023-12-20T09:53:54;101653.16;;;9.51
24714;BMP280;12820;51.580;5.010;2023-12-20T09:58:57;101649.00;;;9.56
24714;BMP280;12820;51.580;5.010;2023-12-20T10:04:00;101654.88;;;9.60
24714;BMP280;12820;51.580;5.010;2023-12-20T10:09:02;101653.22;;;9.67
24714;BMP280;12820;51.580;5.010;2023-12-20T10:14:07;101639.00;;;9.72
24714;BMP280;12820;51.580;5.010;2023-12-20T10:19:09;101648.25;;;9.78
24714;BMP280;12820;51.580;5.010;2023-12-20T10:24:16;101669.19;;;9.85
24714;BMP280;12820;51.580;5.010;2023-12-20T10:29:19;101661.66;;;9.89
24714;BMP280;12820;51.580;5.010;2023-12-20T10:34:21;101654.13;;;9.94
24714;BMP280;12820;51.580;5.010;2023-12-20T10:39:23;101633.22;;;10.00
24714;BMP280;12820;51.580;5.010;2023-12-20T10:44:26;101617.31;;;10.04
24714;BMP280;12820;51.580;5.010;2023-12-20T10:49:30;101616.47;;;10.08
24714;BMP280;12820;51.580;5.010;2023-12-20T10:54:33;101610.59;;;10.12
24714;BMP280;12820;51.580;5.010;2023-12-20T10:59:37;101623.19;;;10.15
24714;BMP280;12820;51.580;5.010;2023-12-20T11:04:52;101615.63;;;10.15
24714;BMP280;12820;51.580;5.010;2023-12-20T11:10:03;101608.09;;;10.15
24714;BMP280;12820;51.580;5.010;2023-12-20T11:15:13;101608.09;;;10.16
24714;BMP280;12820;51.580;5.010;2023-12-20T11:20:16;101606.41;;;10.17
24714;BMP280;12820;51.580;5.010;2023-12-20T11:25:18;101603.91;;;10.17
24714;BMP280;12820;51.580;5.010;2023-12-20T11:30:20;101598.88;;;10.17
24714;BMP280;12820;51.580;5.010;2023-12-20T11:35:22;101593.03;;;10.19
24714;BMP280;12820;51.580;5.010;2023-12-20T11:40:27;101588.81;;;10.20
24714;BMP280;12820;51.580;5.010;2023-12-20T11:45:29;101574.56;;;10.20
24714;BMP280;12820;51.580;5.010;2023-12-20T11:50:32;101581.28;;;10.21
24714;BMP280;12820;51.580;5.010;2023-12-20T11:55:34;101566.19;;;10.26
24714;BMP280;12820;51.580;5.010;2023-12-20T12:00:38;101564.53;;;10.29
24714;BMP280;12820;51.580;5.010;2023-12-20T12:05:40;101558.66;;;10.33
24714;BMP280;12820;51.580;5.010;2023-12-20T12:10:44;101553.63;;;10.40
24714;BMP280;12820;51.580;5.010;2023-12-20T12:15:48;101551.09;;;10.46
24714;BMP280;12820;51.580;5.010;2023-12-20T12:20:50;101547.75;;;10.53
24714;BMP280;12820;51.580;5.010;2023-12-20T12:25:52;101535.97;;;10.58
24714;BMP280;12820;51.580;5.010;2023-12-20T12:30:59;101525.88;;;10.69
24714;BMP280;12820;51.580;5.010;2023-12-20T12:36:01;101524.16;;;10.79
24714;BMP280;12820;51.580;5.010;2023-12-20T12:41:04;101522.44;;;10.86
24714;BMP280;12820;51.580;5.010;2023-12-20T12:46:07;101524.97;;;10.91
24714;BMP280;12820;51.580;5.010;2023-12-20T12:51:09;101519.03;;;10.96
24714;BMP280;12820;51.580;5.010;2023-12-20T12:56:15;101515.72;;;10.94
24714;BMP280;12820;51.580;5.010;2023-12-20T13:01:17;101511.53;;;10.95
24714;BMP280;12820;51.580;5.010;2023-12-20T13:06:20;101497.31;;;10.89
24714;BMP280;12820;51.580;5.010;2023-12-20T13:11:22;101506.53;;;10.89
24714;BMP280;12820;51.580;5.010;2023-12-20T13:16:24;101486.41;;;10.89
24714;BMP280;12820;51.580;5.010;2023-12-20T13:21:27;101475.50;;;10.87
24714;BMP280;12820;51.580;5.010;2023-12-20T13:26:29;101466.31;;;10.86
24714;BMP280;12820;51.580;5.010;2023-12-20T13:31:31;101444.50;;;10.85
24714;BMP280;12820;51.580;5.010;2023-12-20T13:36:34;101431.09;;;10.86
24714;BMP280;12820;51.580;5.010;2023-12-20T13:41:38;101442.81;;;10.87
24714;BMP280;12820;51.580;5.010;2023-12-20T13:46:41;101436.13;;;10.86
24714;BMP280;12820;51.580;5.010;2023-12-20T13:51:43;101431.94;;;10.85
24714;BMP280;12820;51.580;5.010;2023-12-20T13:56:46;101435.28;;;10.85
24714;BMP280;12820;51.580;5.010;2023-12-20T14:02:07;101428.59;;;10.86
24714;BMP280;12820;51.580;5.010;2023-12-20T14:07:10;101416.81;;;10.89
24714;BMP280;12820;51.580;5.010;2023-12-20T14:12:14;101422.63;;;10.99
24714;BMP280;12820;51.580;5.010;2023-12-20T14:17:17;101427.63;;;11.01
24714;BMP280;12820;51.580;5.010;2023-12-20T14:22:20;101421.78;;;10.98
24714;BMP280;12820;51.580;5.010;2023-12-20T14:27:22;101425.16;;;10.99
24714;BMP280;12820;51.580;5.010;2023-12-20T14:32:26;101428.50;;;10.98
24714;BMP280;12820;51.580;5.010;2023-12-20T14:37:30;101413.41;;;10.98
24714;BMP280;12820;51.580;5.010;2023-12-20T14:42:32;101419.28;;;10.97
24714;BMP280;12820;51.580;5.010;2023-12-20T14:47:34;101432.69;;;10.96
24714;BMP280;12820;51.580;5.010;2023-12-20T14:52:37;101430.19;;;10.96
24714;BMP280;12820;51.580;5.010;2023-12-20T14:57:40;101443.59;;;10.96
24714;BMP280;12820;51.580;5.010;2023-12-20T15:02:42;101434.38;;;10.97
24714;BMP280;12820;51.580;5.010;2023-12-20T15:07:44;101428.50;;;10.96
24714;BMP280;12820;51.580;5.010;2023-12-20T15:12:47;101436.06;;;10.95
24714;BMP280;12820;51.580;5.010;2023-12-20T15:17:51;101429.38;;;10.94
24714;BMP280;12820;51.580;5.010;2023-12-20T15:22:53;101416.81;;;10.91
24714;BMP280;12820;51.580;5.010;2023-12-20T15:27:56;101415.97;;;10.89
24714;BMP280;12820;51.580;5.010;2023-12-20T15:32:59;101400.94;;;10.86
24714;BMP280;12820;51.580;5.010;2023-12-20T15:38:04;101422.72;;;10.84
24714;BMP280;12820;51.580;5.010;2023-12-20T15:43:07;101416.03;;;10.80
24714;BMP280;12820;51.580;5.010;2023-12-20T15:48:09;101426.97;;;10.76
24714;BMP280;12820;51.580;5.010;2023-12-20T15:53:13;101416.06;;;10.73
24714;BMP280;12820;51.580;5.010;2023-12-20T15:58:17;101416.94;;;10.70
24714;BMP280;12820;51.580;5.010;2023-12-20T16:03:19;101401.84;;;10.67
24714;BMP280;12820;51.580;5.010;2023-12-20T16:08:28;101401.88;;;10.65
24714;BMP280;12820;51.580;5.010;2023-12-20T16:13:30;101386.78;;;10.63
24714;BMP280;12820;51.580;5.010;2023-12-20T16:18:32;101374.25;;;10.62
24714;BMP280;12820;51.580;5.010;2023-12-20T16:23:35;101365.03;;;10.58
24714;BMP280;12820;51.580;5.010;2023-12-20T16:28:37;101343.28;;;10.57
24714;BMP280;12820;51.580;5.010;2023-12-20T16:33:39;101351.66;;;10.56
24714;BMP280;12820;51.580;5.010;2023-12-20T16:38:43;101352.50;;;10.55
24714;BMP280;12820;51.580;5.010;2023-12-20T16:43:45;101343.28;;;10.54
24714;BMP280;12820;51.580;5.010;2023-12-20T16:48:48;101333.25;;;10.54
24714;BMP280;12820;51.580;5.010;2023-12-20T16:53:51;101318.19;;;10.52
24714;BMP280;12820;51.580;5.010;2023-12-20T16:58:53;101316.50;;;10.51
24714;BMP280;12820;51.580;5.010;2023-12-20T17:03:55;101314.00;;;10.53
24714;BMP280;12820;51.580;5.010;2023-12-20T17:08:58;101287.16;;;10.53
24714;BMP280;12820;51.580;5.010;2023-12-20T17:14:00;101277.16;;;10.52
24714;BMP280;12820;51.580;5.010;2023-12-20T17:19:03;101265.41;;;10.52
24714;BMP280;12820;51.580;5.010;2023-12-20T17:24:06;101266.25;;;10.51
24714;BMP280;12820;51.580;5.010;2023-12-20T17:29:12;101265.41;;;10.51
24714;BMP280;12820;51.580;5.010;2023-12-20T17:34:14;101253.69;;;10.51
24714;BMP280;12820;51.580;5.010;2023-12-20T17:39:16;101253.69;;;10.53
24714;BMP280;12820;51.580;5.010;2023-12-20T17:44:19;101246.16;;;10.53
24714;BMP280;12820;51.580;5.010;2023-12-20T17:49:21;101238.59;;;10.53
24714;BMP280;12820;51.580;5.010;2023-12-20T17:54:26;101251.13;;;10.54
24714;BMP280;12820;51.580;5.010;2023-12-20T17:59:31;101236.91;;;10.55
24714;BMP280;12820;51.580;5.010;2023-12-20T18:04:33;101210.94;;;10.56
24714;BMP280;12820;51.580;5.010;2023-12-20T18:09:35;101205.91;;;10.57
24714;BMP280;12820;51.580;5.010;2023-12-20T18:14:37;101220.09;;;10.60
24714;BMP280;12820;51.580;5.010;2023-12-20T18:19:39;101210.06;;;10.60
24714;BMP280;12820;51.580;5.010;2023-12-20T18:24:42;101205.84;;;10.62
24714;BMP280;12820;51.580;5.010;2023-12-20T18:29:44;101205.84;;;10.60
24714;BMP280;12820;51.580;5.010;2023-12-20T18:34:47;101207.50;;;10.63
24714;BMP280;12820;51.580;5.010;2023-12-20T18:39:49;101188.22;;;10.65
24714;BMP280;12820;51.580;5.010;2023-12-20T18:44:53;101189.03;;;10.68
24714;BMP280;12820;51.580;5.010;2023-12-20T18:49:55;101191.53;;;10.69
24714;BMP280;12820;51.580;5.010;2023-12-20T18:54:58;101195.72;;;10.72
24714;BMP280;12820;51.580;5.010;2023-12-20T19:00:00;101191.50;;;10.72
24714;BMP280;12820;51.580;5.010;2023-12-20T19:05:06;101182.25;;;10.74
24714;BMP280;12820;51.580;5.010;2023-12-20T19:10:09;101170.53;;;10.73
24714;BMP280;12820;51.580;5.010;2023-12-20T19:15:11;101159.66;;;10.74
24714;BMP280;12820;51.580;5.010;2023-12-20T19:20:13;101167.19;;;10.74
24714;BMP280;12820;51.580;5.010;2023-12-20T19:25:16;101133.66;;;10.74
24714;BMP280;12820;51.580;5.010;2023-12-20T19:30:18;101124.44;;;10.74
24714;BMP280;12820;51.580;5.010;2023-12-20T19:35:20;101110.19;;;10.73
24714;BMP280;12820;51.580;5.010;2023-12-20T19:40:22;101111.03;;;10.75
24714;BMP280;12820;51.580;5.010;2023-12-20T19:45:25;101111.84;;;10.77
24714;BMP280;12820;51.580;5.010;2023-12-20T19:50:27;101110.16;;;10.79
24714;BMP280;12820;51.580;5.010;2023-12-20T19:55:29;101097.56;;;10.79
24714;BMP280;12820;51.580;5.010;2023-12-20T20:00:33;101081.59;;;10.82
24714;BMP280;12820;51.580;5.010;2023-12-20T20:05:51;101091.66;;;10.84
24714;BMP280;12820;51.580;5.010;2023-12-20T20:10:53;101087.47;;;10.85
24714;BMP280;12820;51.580;5.010;2023-12-20T20:15:56;101063.16;;;10.85
24714;BMP280;12820;51.580;5.010;2023-12-20T20:20:58;101066.47;;;10.87
24714;BMP280;12820;51.580;5.010;2023-12-20T20:26:00;101089.06;;;10.90
24714;BMP280;12820;51.580;5.010;2023-12-20T20:31:03;101079.84;;;10.91
24714;BMP280;12820;51.580;5.010;2023-12-20T20:36:06;101078.13;;;10.91
24714;BMP280;12820;51.580;5.010;2023-12-20T20:41:10;101073.13;;;10.91
24714;BMP280;12820;51.580;5.010;2023-12-20T20:46:12;101068.09;;;10.93
24714;BMP280;12820;51.580;5.010;2023-12-20T20:51:15;101049.63;;;10.94
24714;BMP280;12820;51.580;5.010;2023-12-20T20:56:17;101058.84;;;10.95
24714;BMP280;12820;51.580;5.010;2023-12-20T21:01:20;101037.84;;;10.96
24714;BMP280;12820;51.580;5.010;2023-12-20T21:06:22;101052.09;;;10.97
24714;BMP280;12820;51.580;5.010;2023-12-20T21:11:24;101029.47;;;10.98
24714;BMP280;12820;51.580;5.010;2023-12-20T21:16:26;101016.88;;;10.98
24714;BMP280;12820;51.580;5.010;2023-12-20T21:21:29;101000.13;;;10.99
24714;BMP280;12820;51.580;5.010;2023-12-20T21:26:31;100988.31;;;11.00
24714;BMP280;12820;51.580;5.010;2023-12-20T21:31:33;100986.69;;;11.00
24714;BMP280;12820;51.580;5.010;2023-12-20T21:36:36;100991.72;;;11.00
24714;BMP280;12820;51.580;5.010;2023-12-20T21:41:38;100990.03;;;11.00
24714;BMP280;12820;51.580;5.010;2023-12-20T21:46:40;100988.31;;;11.00
24714;BMP280;12820;51.580;5.010;2023-12-20T21:51:44;101010.13;;;11.01
24714;BMP280;12820;51.580;5.010;2023-12-20T21:56:46;101011.78;;;11.02
24714;BMP280;12820;51.580;5.010;2023-12-20T22:01:51;101010.97;;;11.02
24714;BMP280;12820;51.580;5.010;2023-12-20T22:06:53;101012.63;;;11.03
24714;BMP280;12820;51.580;5.010;2023-12-20T22:11:55;101001.69;;;11.05
24714;BMP280;12820;51.580;5.010;2023-12-20T22:16:58;100998.38;;;11.03
24714;BMP280;12820;51.580;5.010;2023-12-20T22:22:00;101004.25;;;11.04
24714;BMP280;12820;51.580;5.010;2023-12-20T22:27:02;100996.63;;;11.07
24714;BMP280;12820;51.580;5.010;2023-12-20T22:32:05;100989.09;;;11.07
24714;BMP280;12820;51.580;5.010;2023-12-20T22:37:09;100973.16;;;11.06
24714;BMP280;12820;51.580;5.010;2023-12-20T22:42:12;100960.56;;;11.08
24714;BMP280;12820;51.580;5.010;2023-12-20T22:47:14;100957.22;;;11.09
24714;BMP280;12820;51.580;5.010;2023-12-20T22:52:16;100949.66;;;11.09
24714;BMP280;12820;51.580;5.010;2023-12-20T22:57:18;100948.00;;;11.09
24714;BMP280;12820;51.580;5.010;2023-12-20T23:02:20;100932.91;;;11.09
24714;BMP280;12820;51.580;5.010;2023-12-20T23:07:22;100933.69;;;11.13
24714;BMP280;12820;51.580;5.010;2023-12-20T23:12:25;100913.56;;;11.11
24714;BMP280;12820;51.580;5.010;2023-12-20T23:17:27;100915.25;;;11.12
24714;BMP280;12820;51.580;5.010;2023-12-20T23:22:29;100906.84;;;11.13
24714;BMP280;12820;51.580;5.010;2023-12-20T23:27:32;100914.34;;;11.16
24714;BMP280;12820;51.580;5.010;2023-12-20T23:32:34;100934.44;;;11.16
24714;BMP280;12820;51.580;5.010;2023-12-20T23:37:36;100921.03;;;11.17
24714;BMP280;12820;51.580;5.010;2023-12-20T23:42:38;100900.91;;;11.17
24714;BMP280;12820;51.580;5.010;2023-12-20T23:47:41;100895.81;;;11.20
24714;BMP280;12820;51.580;5.010;2023-12-20T23:52:43;100871.47;;;11.22
24714;BMP280;12820;51.580;5.010;2023-12-20T23:57:45;100863.09;;;11.23
